Time;durP1;ratioP1;P1;durP2;ratioP2;P2;SDS_P1;SDS_P2;PMS_P1;PMS_P2;Temp;Humidity;BMP_temperature;BMP_pressure;BME280_temperature;BME280_humidity;BME280_pressure;Samples;Min_cycle;Max_cycle;Signal;HPM_P1;HPM_P2
2021/09/28 00:00:10;;;;;;;3.40;1.05;;;20.00;85.10;;;;;;4227944;27;20482;-60
2021/09/28 00:02:34;;;;;;;3.13;0.98;;;20.00;84.70;;;;;;4227983;27;20059;-60
2021/09/28 00:04:56;;;;;;;1.88;0.70;;;20.00;84.80;;;;;;4227908;27;20036;-60
2021/09/28 00:07:19;;;;;;;1.55;0.95;;;20.00;84.80;;;;;;4227191;27;20085;-60
2021/09/28 00:09:41;;;;;;;2.67;0.90;;;20.00;84.50;;;;;;4227968;27;20067;-60
2021/09/28 00:12:03;;;;;;;1.40;1.17;;;19.90;84.60;;;;;;4227728;27;20182;-60
2021/09/28 00:14:26;;;;;;;0.98;0.80;;;19.90;84.70;;;;;;4227346;27;20047;-60
2021/09/28 00:16:48;;;;;;;1.75;1.00;;;19.90;84.50;;;;;;4227926;27;20055;-60
2021/09/28 00:19:12;;;;;;;2.50;0.95;;;19.90;84.70;;;;;;4227228;27;20474;-60
2021/09/28 00:21:33;;;;;;;5.15;1.08;;;19.90;84.50;;;;;;4227584;28;20058;-60
2021/09/28 00:23:55;;;;;;;0.95;0.75;;;19.90;84.60;;;;;;4226800;27;20051;-60
2021/09/28 00:26:17;;;;;;;1.65;0.90;;;19.90;84.80;;;;;;4210703;28;20048;-60
2021/09/28 00:28:39;;;;;;;2.60;0.93;;;19.90;84.60;;;;;;4210522;28;20064;-60
2021/09/28 00:31:01;;;;;;;2.20;0.90;;;19.90;84.30;;;;;;4210521;28;20506;-61
2021/09/28 00:33:25;;;;;;;0.82;0.80;;;19.90;84.50;;;;;;4220561;27;20489;-60
2021/09/28 00:35:51;;;;;;;3.10;1.42;;;19.90;84.60;;;;;;4227784;27;20406;-60
2021/09/28 00:38:14;;;;;;;1.75;0.90;;;19.90;84.50;;;;;;4217113;28;20040;-60
2021/09/28 00:40:36;;;;;;;1.75;0.90;;;19.80;84.80;;;;;;4210680;27;20056;-60
2021/09/28 00:42:58;;;;;;;2.45;0.80;;;19.80;84.80;;;;;;4226959;27;20087;-61
2021/09/28 00:45:20;;;;;;;2.70;1.00;;;19.80;84.60;;;;;;4227291;28;20047;-60
2021/09/28 00:47:42;;;;;;;1.85;1.00;;;19.80;84.50;;;;;;4227238;27;20062;-61
2021/09/28 00:50:06;;;;;;;7.53;1.35;;;19.80;84.60;;;;;;4227030;28;20527;-60
2021/09/28 00:52:32;;;;;;;2.30;0.85;;;19.80;84.50;;;;;;4227090;27;21125;-60
2021/09/28 00:54:54;;;;;;;3.17;1.00;;;19.80;84.10;;;;;;4226862;27;20051;-60
2021/09/28 00:57:17;;;;;;;3.33;1.00;;;19.80;84.70;;;;;;4226359;27;20485;-60
2021/09/28 00:59:41;;;;;;;1.33;0.90;;;19.80;84.50;;;;;;4226982;27;20455;-60
2021/09/28 01:02:03;;;;;;;1.23;0.90;;;19.80;84.20;;;;;;4226580;27;20047;-60
2021/09/28 01:04:25;;;;;;;2.03;1.30;;;19.80;84.40;;;;;;4226812;28;20485;-60
2021/09/28 01:06:48;;;;;;;1.63;0.98;;;19.80;84.60;;;;;;4225417;28;20032;-60
2021/09/28 01:09:13;;;;;;;2.20;1.30;;;19.80;84.60;;;;;;4226789;28;20071;-60
2021/09/28 01:11:35;;;;;;;4.20;1.00;;;19.70;84.20;;;;;;4226692;27;20473;-60
2021/09/28 01:13:57;;;;;;;2.80;0.90;;;19.70;84.40;;;;;;4226650;27;20054;-60
2021/09/28 01:16:19;;;;;;;2.20;0.82;;;19.70;84.50;;;;;;4226616;27;20055;-60
2021/09/28 01:18:43;;;;;;;1.27;0.75;;;19.70;84.60;;;;;;4209860;28;20044;-61
2021/09/28 01:21:09;;;;;;;3.88;1.00;;;19.70;84.40;;;;;;4215580;27;20062;-60
2021/09/28 01:23:32;;;;;;;4.00;1.15;;;19.70;84.30;;;;;;4226348;27;20054;-61
2021/09/28 01:25:54;;;;;;;2.10;1.00;;;19.70;84.70;;;;;;4226704;27;20051;-60
2021/09/28 01:28:16;;;;;;;2.97;1.10;;;19.70;84.40;;;;;;4226797;27;20047;-61
2021/09/28 01:30:38;;;;;;;0.82;0.82;;;19.70;84.50;;;;;;4225884;27;20047;-61
2021/09/28 01:33:00;;;;;;;2.70;1.10;;;19.70;84.60;;;;;;4226159;27;20051;-60
2021/09/28 01:35:22;;;;;;;2.53;1.00;;;19.60;84.50;;;;;;4226716;28;20114;-60
2021/09/28 01:37:46;;;;;;;1.92;1.15;;;19.70;85.30;;;;;;4225576;27;20059;-61
2021/09/28 01:40:09;;;;;;;2.47;1.10;;;19.60;84.20;;;;;;4226500;27;20047;-60
2021/09/28 01:42:31;;;;;;;3.08;1.10;;;19.60;84.30;;;;;;4250972;27;20057;-60
2021/09/28 01:44:53;;;;;;;0.80;0.80;;;19.60;84.30;;;;;;4209629;28;20062;-60
2021/09/28 01:47:15;;;;;;;1.23;1.00;;;19.60;84.30;;;;;;4209389;28;20127;-60
2021/09/28 01:49:37;;;;;;;2.40;1.33;;;19.60;84.40;;;;;;4209271;28;20490;-60
2021/09/28 01:51:59;;;;;;;2.63;1.52;;;19.60;84.40;;;;;;4209272;28;20054;-61
2021/09/28 01:54:23;;;;;;;1.42;1.17;;;19.60;84.40;;;;;;4220625;27;20114;-58
2021/09/28 01:56:45;;;;;;;1.88;1.02;;;19.60;84.20;;;;;;4224820;27;20486;-59
2021/09/28 01:59:08;;;;;;;1.35;1.13;;;19.60;84.20;;;;;;4225971;27;20047;-60
2021/09/28 02:01:30;;;;;;;3.45;1.33;;;19.60;84.30;;;;;;4225958;27;20055;-60
2021/09/28 02:03:54;;;;;;;2.53;1.38;;;19.60;84.40;;;;;;4226080;27;20075;-61
2021/09/28 02:06:17;;;;;;;1.92;1.25;;;19.50;84.40;;;;;;4225752;28;20050;-60
2021/09/28 02:08:39;;;;;;;2.42;1.10;;;19.60;84.40;;;;;;4226218;27;20519;-60
2021/09/28 02:11:03;;;;;;;1.50;1.30;;;19.50;84.30;;;;;;4225795;27;20074;-60
2021/09/28 02:13:25;;;;;;;1.73;0.98;;;19.60;84.20;;;;;;4226087;27;20097;-60
2021/09/28 02:15:47;;;;;;;2.92;1.17;;;19.50;84.70;;;;;;4225810;27;20063;-60
2021/09/28 02:18:09;;;;;;;1.88;1.40;;;19.50;85.30;;;;;;4209006;28;20040;-60
2021/09/28 02:20:31;;;;;;;2.65;1.63;;;19.50;84.40;;;;;;4220452;27;20115;-60
2021/09/28 02:22:54;;;;;;;1.33;1.23;;;19.50;84.50;;;;;;4225395;27;20465;-61
2021/09/28 02:25:18;;;;;;;2.97;1.23;;;19.50;84.40;;;;;;4225787;27;20044;-61
2021/09/28 02:27:42;;;;;;;3.00;1.40;;;19.50;84.10;;;;;;4225939;27;20143;-60
2021/09/28 02:30:08;;;;;;;2.58;1.33;;;19.50;84.10;;;;;;4225678;27;20486;-60
2021/09/28 02:32:30;;;;;;;3.22;1.55;;;19.40;84.20;;;;;;4225254;27;20550;-60
2021/09/28 02:34:52;;;;;;;2.20;1.20;;;19.50;84.20;;;;;;4225785;27;23921;-60
2021/09/28 02:37:14;;;;;;;1.85;1.10;;;19.50;84.30;;;;;;4225416;27;20121;-60
2021/09/28 02:39:37;;;;;;;4.30;1.67;;;19.40;84.30;;;;;;4225206;27;20107;-61
2021/09/28 02:41:59;;;;;;;1.92;1.40;;;19.40;84.20;;;;;;4225413;27;20463;-60
2021/09/28 02:44:23;;;;;;;4.38;1.50;;;19.40;84.30;;;;;;4225174;27;20413;-58
2021/09/28 02:46:45;;;;;;;3.05;1.45;;;19.40;84.00;;;;;;4218379;27;20076;-60
2021/09/28 02:49:07;;;;;;;1.55;1.30;;;19.40;84.30;;;;;;4213006;28;20124;-60
2021/09/28 02:51:30;;;;;;;2.67;1.40;;;19.40;84.40;;;;;;4224958;27;20116;-60
2021/09/28 02:53:52;;;;;;;2.97;1.73;;;19.40;84.20;;;;;;4225169;28;20486;-59
2021/09/28 02:56:14;;;;;;;1.92;1.45;;;19.40;84.20;;;;;;4225454;28;20409;-60
2021/09/28 02:58:36;;;;;;;1.90;1.50;;;19.40;84.20;;;;;;4225363;28;20071;-60
2021/09/28 03:01:01;;;;;;;1.83;1.73;;;19.40;84.30;;;;;;4207880;28;20463;-60
2021/09/28 03:03:24;;;;;;;1.70;1.60;;;19.40;84.20;;;;;;4207986;28;20043;-60
2021/09/28 03:05:46;;;;;;;2.67;1.52;;;19.40;84.30;;;;;;4205968;28;20096;-60
2021/09/28 03:08:08;;;;;;;2.20;1.63;;;19.40;84.30;;;;;;4222308;27;20138;-60
2021/09/28 03:10:30;;;;;;;2.72;1.25;;;19.40;84.30;;;;;;4224875;27;20047;-60
2021/09/28 03:12:52;;;;;;;3.13;1.58;;;19.40;84.30;;;;;;4224821;28;20413;-59
2021/09/28 03:15:14;;;;;;;2.20;1.40;;;19.40;84.40;;;;;;4225090;27;20039;-60
2021/09/28 03:17:37;;;;;;;2.80;1.60;;;19.40;84.40;;;;;;4211411;28;20409;-60
2021/09/28 03:19:59;;;;;;;6.90;1.95;;;19.40;84.30;;;;;;4221263;27;20131;-60
2021/09/28 03:22:21;;;;;;;3.67;1.88;;;19.30;84.30;;;;;;4224882;28;20496;-59
2021/09/28 03:24:43;;;;;;;2.20;1.75;;;19.30;84.30;;;;;;4225012;28;20058;-60
2021/09/28 03:27:06;;;;;;;1.77;1.45;;;19.30;84.20;;;;;;4224197;28;20066;-60
2021/09/28 03:29:29;;;;;;;2.67;1.80;;;19.30;84.10;;;;;;4224600;27;20481;-60
2021/09/28 03:31:51;;;;;;;3.30;1.70;;;19.30;84.20;;;;;;4224881;27;20051;-60
2021/09/28 03:34:15;;;;;;;3.22;1.70;;;19.30;84.20;;;;;;4224759;27;20044;-60
2021/09/28 03:36:37;;;;;;;1.80;1.70;;;19.30;84.10;;;;;;4224853;27;20051;-60
2021/09/28 03:38:59;;;;;;;3.53;1.63;;;19.30;84.20;;;;;;4224529;27;20127;-60
2021/09/28 03:41:21;;;;;;;5.30;2.30;;;19.30;84.20;;;;;;4225115;28;20051;-60
2021/09/28 03:43:43;;;;;;;3.30;1.50;;;19.30;84.10;;;;;;4224930;28;20071;-60
2021/09/28 03:46:05;;;;;;;4.68;2.17;;;19.20;84.20;;;;;;4224088;28;20054;-61
2021/09/28 03:48:27;;;;;;;3.83;2.20;;;19.20;84.30;;;;;;4224330;27;20468;-64
2021/09/28 03:50:51;;;;;;;3.67;1.80;;;19.20;84.30;;;;;;4224375;28;20044;-60
2021/09/28 03:53:13;;;;;;;2.72;1.83;;;19.20;84.20;;;;;;4224299;28;20073;-60
2021/09/28 03:55:35;;;;;;;2.05;1.83;;;19.20;84.40;;;;;;4224537;28;20413;-60
2021/09/28 03:57:57;;;;;;;2.22;1.60;;;19.20;84.30;;;;;;4224291;28;20048;-60
2021/09/28 04:00:22;;;;;;;2.70;1.83;;;19.20;84.30;;;;;;4224366;27;20065;-60
2021/09/28 04:02:44;;;;;;;1.80;1.70;;;19.20;84.10;;;;;;4224967;27;20117;-60
2021/09/28 04:05:07;;;;;;;4.20;1.85;;;19.20;84.30;;;;;;4224624;27;20051;-60
2021/09/28 04:07:30;;;;;;;3.15;2.20;;;19.20;84.30;;;;;;4224361;27;20508;-59
2021/09/28 04:09:53;;;;;;;2.83;1.85;;;19.20;84.10;;;;;;4223973;28;20047;-60
2021/09/28 04:12:17;;;;;;;3.20;1.90;;;19.20;84.40;;;;;;4224307;28;20058;-60
2021/09/28 04:14:40;;;;;;;3.90;2.13;;;19.20;84.50;;;;;;4224586;28;20138;-60
2021/09/28 04:17:02;;;;;;;4.18;1.75;;;19.10;84.40;;;;;;4213449;28;20052;-60
2021/09/28 04:19:23;;;;;;;4.22;1.80;;;19.20;84.30;;;;;;4209436;28;20048;-60
2021/09/28 04:21:46;;;;;;;2.40;2.20;;;19.10;84.30;;;;;;4210836;28;20134;-60
2021/09/28 04:24:11;;;;;;;4.68;2.45;;;19.10;84.30;;;;;;4210510;28;20055;-60
2021/09/28 04:26:34;;;;;;;2.90;2.40;;;19.10;83.90;;;;;;4210713;28;20052;-60
2021/09/28 04:28:57;;;;;;;4.22;2.38;;;19.10;84.30;;;;;;4210544;28;20059;-60
2021/09/28 04:31:18;;;;;;;4.72;2.45;;;19.10;84.30;;;;;;4210469;28;20048;-60
2021/09/28 04:33:40;;;;;;;2.92;1.83;;;19.10;84.20;;;;;;4225559;28;20055;-60
2021/09/28 04:36:02;;;;;;;6.80;2.42;;;19.10;84.20;;;;;;4223576;27;20168;-60
2021/09/28 04:38:25;;;;;;;4.20;1.85;;;19.10;84.20;;;;;;4238068;27;20041;-59
2021/09/28 04:40:48;;;;;;;4.20;1.88;;;19.10;84.20;;;;;;4210126;28;20414;-60
2021/09/28 04:43:10;;;;;;;6.07;2.55;;;19.10;84.00;;;;;;4210254;28;20051;-60
2021/09/28 04:45:33;;;;;;;2.15;1.95;;;19.10;84.30;;;;;;4223784;28;20722;-59
2021/09/28 04:47:55;;;;;;;3.28;1.98;;;19.10;84.10;;;;;;4227048;27;20490;-60
2021/09/28 04:50:17;;;;;;;3.08;2.10;;;19.10;84.20;;;;;;4227557;27;20114;-60
2021/09/28 04:52:39;;;;;;;4.63;2.40;;;19.10;84.20;;;;;;4227117;27;20078;-60
2021/09/28 04:55:01;;;;;;;5.22;2.22;;;19.10;84.30;;;;;;4226963;27;20086;-60
2021/09/28 04:57:25;;;;;;;2.20;2.00;;;19.00;84.20;;;;;;4224764;27;20101;-59
2021/09/28 04:59:47;;;;;;;1.92;1.83;;;19.10;84.00;;;;;;4226712;28;20050;-60
2021/09/28 05:02:10;;;;;;;3.85;2.22;;;19.00;84.10;;;;;;4227025;28;20505;-59
2021/09/28 05:04:32;;;;;;;3.65;2.03;;;19.00;84.00;;;;;;4226728;27;20047;-60
2021/09/28 05:06:55;;;;;;;2.67;2.30;;;19.00;84.10;;;;;;4226928;27;20091;-60
2021/09/28 05:09:17;;;;;;;2.55;2.22;;;19.00;84.10;;;;;;4226739;27;20134;-60
2021/09/28 05:11:39;;;;;;;2.28;2.08;;;19.00;84.10;;;;;;4226878;27;20059;-60
2021/09/28 05:14:05;;;;;;;2.90;2.20;;;19.00;84.10;;;;;;4226583;27;20096;-60
2021/09/28 05:16:27;;;;;;;2.90;2.28;;;19.00;83.80;;;;;;4215004;28;20050;-60
2021/09/28 05:18:50;;;;;;;4.35;2.20;;;19.00;84.10;;;;;;4223064;27;20547;-60
2021/09/28 05:21:13;;;;;;;3.33;2.33;;;19.00;84.10;;;;;;4226550;27;20086;-60
2021/09/28 05:23:35;;;;;;;4.68;2.47;;;19.00;84.10;;;;;;4225068;28;20070;-60
2021/09/28 05:25:57;;;;;;;3.13;1.83;;;19.00;84.00;;;;;;4226750;27;20047;-59
2021/09/28 05:28:19;;;;;;;3.47;2.28;;;19.00;84.20;;;;;;4226260;27;20093;-60
2021/09/28 05:30:44;;;;;;;3.25;2.10;;;18.90;84.10;;;;;;4225734;27;20058;-60
2021/09/28 05:33:07;;;;;;;3.88;2.30;;;19.00;84.40;;;;;;4225795;27;20051;-60
2021/09/28 05:35:29;;;;;;;3.70;2.25;;;19.00;84.40;;;;;;4209197;28;20155;-59
2021/09/28 05:37:52;;;;;;;6.18;2.50;;;18.90;84.30;;;;;;4213374;27;20134;-59
2021/09/28 05:40:15;;;;;;;3.40;2.10;;;19.00;83.80;;;;;;4218349;28;20039;-58
2021/09/28 05:42:37;;;;;;;3.42;2.00;;;19.00;83.20;;;;;;4226210;27;20092;-59
2021/09/28 05:44:59;;;;;;;3.63;2.47;;;19.00;82.90;;;;;;4225755;27;20059;-57
2021/09/28 05:47:23;;;;;;;3.13;2.30;;;19.00;82.70;;;;;;4226017;28;20047;-59
2021/09/28 05:49:45;;;;;;;4.80;2.38;;;19.10;82.50;;;;;;4225634;27;20066;-58
2021/09/28 05:52:11;;;;;;;2.83;2.00;;;19.10;82.70;;;;;;4225362;27;20054;-58
2021/09/28 05:54:39;;;;;;;4.20;2.08;;;19.10;82.50;;;;;;4222338;27;20043;-57
2021/09/28 05:57:01;;;;;;;4.43;2.40;;;19.10;82.80;;;;;;4226212;27;20044;-59
2021/09/28 05:59:23;;;;;;;3.33;2.03;;;19.10;82.70;;;;;;4225518;28;20051;-59
2021/09/28 06:01:46;;;;;;;4.25;2.50;;;19.00;82.70;;;;;;4225926;27;20047;-60
2021/09/28 06:04:10;;;;;;;4.63;2.28;;;19.00;82.50;;;;;;4225823;27;20036;-59
2021/09/28 06:06:32;;;;;;;3.00;2.22;;;19.00;82.40;;;;;;4225650;27;20066;-58
2021/09/28 06:08:55;;;;;;;2.80;2.17;;;19.00;82.30;;;;;;4225696;28;20049;-59
2021/09/28 06:11:17;;;;;;;3.60;2.38;;;19.00;82.40;;;;;;4225790;27;20046;-58
2021/09/28 06:13:39;;;;;;;4.45;2.20;;;18.90;82.80;;;;;;4226132;28;20055;-58
2021/09/28 06:16:01;;;;;;;3.75;2.97;;;18.90;82.80;;;;;;4225285;28;20070;-60
2021/09/28 06:18:24;;;;;;;4.13;2.45;;;18.90;82.80;;;;;;4225528;27;20071;-58
2021/09/28 06:20:47;;;;;;;5.25;2.70;;;18.90;83.20;;;;;;4225542;27;20054;-59
2021/09/28 06:23:11;;;;;;;4.53;2.95;;;18.90;82.60;;;;;;4223578;28;20112;-58
2021/09/28 06:25:33;;;;;;;2.72;2.40;;;18.90;82.50;;;;;;4225467;27;20534;-58
2021/09/28 06:27:55;;;;;;;5.55;3.05;;;18.90;82.60;;;;;;4225311;27;20825;-58
2021/09/28 06:30:18;;;;;;;4.35;2.53;;;18.80;82.70;;;;;;4225764;28;20050;-59
2021/09/28 06:32:40;;;;;;;4.28;2.50;;;18.80;82.50;;;;;;4225389;28;20113;-58
2021/09/28 06:35:01;;;;;;;3.20;2.10;;;18.80;82.60;;;;;;4225642;28;20063;-58
2021/09/28 06:37:25;;;;;;;3.33;2.45;;;18.80;82.50;;;;;;4225285;28;20047;-58
2021/09/28 06:39:47;;;;;;;3.58;2.25;;;18.80;82.50;;;;;;4224549;27;20546;-58
2021/09/28 06:42:10;;;;;;;4.38;2.78;;;18.80;82.40;;;;;;4208547;28;20044;-58
2021/09/28 06:44:32;;;;;;;2.60;2.40;;;18.80;82.50;;;;;;4208145;28;20056;-58
2021/09/28 06:46:54;;;;;;;4.88;2.67;;;18.80;82.50;;;;;;4208164;28;20048;-59
2021/09/28 06:49:16;;;;;;;3.50;2.40;;;18.80;82.30;;;;;;4214280;27;20493;-58
2021/09/28 06:51:38;;;;;;;3.00;2.20;;;18.80;82.60;;;;;;4224617;27;20047;-60
2021/09/28 06:54:02;;;;;;;6.57;2.83;;;18.80;83.10;;;;;;4223008;27;20043;-59
2021/09/28 06:56:24;;;;;;;5.18;3.00;;;18.80;82.50;;;;;;4224474;27;20130;-59
2021/09/28 06:58:47;;;;;;;7.03;2.60;;;18.70;82.70;;;;;;4224675;27;20047;-59
2021/09/28 07:01:09;;;;;;;4.47;2.72;;;18.70;82.80;;;;;;4224546;27;20054;-58
2021/09/28 07:03:33;;;;;;;2.90;2.42;;;18.70;82.30;;;;;;4224788;27;20508;-59
2021/09/28 07:05:55;;;;;;;3.88;3.13;;;18.70;83.40;;;;;;4225032;27;20138;-58
2021/09/28 07:08:18;;;;;;;3.22;2.67;;;18.70;83.40;;;;;;4224766;28;20391;-58
2021/09/28 07:10:42;;;;;;;3.72;3.00;;;18.70;83.70;;;;;;4224975;28;20818;-59
2021/09/28 07:13:04;;;;;;;4.80;2.92;;;18.70;83.50;;;;;;4225100;28;20045;-60
2021/09/28 07:15:26;;;;;;;3.35;2.90;;;18.70;83.50;;;;;;4225393;28;20044;-59
2021/09/28 07:17:48;;;;;;;7.60;3.25;;;18.80;84.00;;;;;;4224570;27;20055;-59
2021/09/28 07:20:12;;;;;;;5.70;2.67;;;18.80;84.70;;;;;;4225320;28;21433;-59
2021/09/28 07:22:34;;;;;;;11.10;3.53;;;18.80;84.10;;;;;;4224318;27;20059;-58
2021/09/28 07:24:56;;;;;;;7.07;3.70;;;18.90;84.90;;;;;;4224327;27;20047;-58
2021/09/28 07:27:21;;;;;;;10.55;3.47;;;18.90;84.90;;;;;;4224981;27;20051;-59
2021/09/28 07:29:43;;;;;;;6.10;3.50;;;18.90;85.80;;;;;;4223493;28;20047;-56
2021/09/28 07:32:06;;;;;;;10.57;3.70;;;18.90;84.70;;;;;;4224371;27;20046;-57
2021/09/28 07:34:31;;;;;;;5.78;4.22;;;19.00;85.30;;;;;;4224238;27;20122;-57
2021/09/28 07:36:54;;;;;;;7.20;3.75;;;19.00;84.90;;;;;;4208064;28;20051;-58
2021/09/28 07:39:16;;;;;;;5.55;3.70;;;19.00;85.00;;;;;;4221518;27;20052;-58
2021/09/28 07:41:38;;;;;;;8.23;3.63;;;19.10;84.60;;;;;;4224739;27;20417;-56
2021/09/28 07:44:03;;;;;;;7.28;3.72;;;19.10;84.30;;;;;;4224210;27;20047;-57
2021/09/28 07:46:24;;;;;;;7.85;3.58;;;19.10;84.00;;;;;;4224469;27;20058;-58
2021/09/28 07:48:48;;;;;;;6.30;3.17;;;19.10;83.90;;;;;;4224418;27;20047;-58
2021/09/28 07:51:09;;;;;;;7.30;3.42;;;19.20;83.40;;;;;;4224664;27;20040;-59
2021/09/28 07:53:32;;;;;;;8.02;3.97;;;19.20;83.20;;;;;;4224763;27;20092;-59
2021/09/28 07:55:54;;;;;;;10.30;3.92;;;19.20;83.70;;;;;;4211315;28;20075;-59
2021/09/28 07:58:16;;;;;;;6.32;3.47;;;19.20;83.30;;;;;;4215724;27;20131;-59
2021/09/28 08:00:42;;;;;;;8.10;3.88;;;19.30;83.00;;;;;;4228202;27;20043;-58
2021/09/28 08:03:04;;;;;;;6.72;3.33;;;19.30;83.20;;;;;;4226342;27;20047;-60
2021/09/28 08:05:51;;;;;;;7.40;3.47;;;19.30;82.90;;;;;;4228042;27;20065;-59
2021/09/28 08:08:39;;;;;;;4.10;3.38;;;19.30;82.50;;;;;;4227116;27;20051;-59
2021/09/28 08:11:20;;;;;;;6.95;3.30;;;19.40;82.90;;;;;;4227130;27;20055;-59
2021/09/28 08:14:04;;;;;;;4.45;3.08;;;19.40;83.10;;;;;;4227452;28;20050;-59
2021/09/28 08:16:29;;;;;;;7.55;3.63;;;19.40;83.00;;;;;;4227577;27;20081;-59
2021/09/28 08:18:57;;;;;;;5.78;3.72;;;19.40;82.90;;;;;;4227053;27;20405;-59
2021/09/28 08:21:44;;;;;;;5.57;3.42;;;19.40;82.80;;;;;;4227458;27;20066;-59
2021/09/28 08:24:36;;;;;;;4.65;3.17;;;19.50;83.50;;;;;;4227344;27;20595;-59
2021/09/28 08:30:10;;;;;;;6.50;3.60;;;19.50;82.70;;;;;;4210237;28;20077;-59
2021/09/28 08:32:59;;;;;;;8.02;3.85;;;19.50;82.50;;;;;;4214927;28;20050;-59
2021/09/28 08:35:23;;;;;;;8.40;3.22;;;19.50;82.30;;;;;;4227211;27;20050;-58
2021/09/28 08:38:11;;;;;;;5.13;3.25;;;19.40;83.10;;;;;;4226860;27;20181;-58
2021/09/28 08:40:58;;;;;;;6.25;3.78;;;19.40;82.40;;;;;;4227498;28;20100;-58
2021/09/28 08:43:45;;;;;;;6.50;3.88;;;19.40;82.80;;;;;;4226986;27;20432;-58
2021/09/28 08:46:32;;;;;;;6.95;4.00;;;19.40;82.90;;;;;;4227361;27;20050;-58
2021/09/28 08:49:22;;;;;;;5.72;3.85;;;19.40;83.30;;;;;;4226207;27;20066;-59
2021/09/28 08:52:05;;;;;;;10.30;3.30;;;19.40;83.30;;;;;;4226691;27;20101;-58
2021/09/28 08:54:52;;;;;;;8.35;3.70;;;19.40;83.40;;;;;;4216785;27;20063;-57
2021/09/28 08:57:41;;;;;;;7.03;3.20;;;19.40;83.10;;;;;;4226555;27;20485;-58
2021/09/28 09:00:28;;;;;;;7.30;3.63;;;19.50;83.30;;;;;;4226764;27;20077;-57
2021/09/28 09:03:24;;;;;;;7.43;3.45;;;19.50;83.40;;;;;;4209920;28;20052;-58
2021/09/28 09:06:08;;;;;;;5.40;3.50;;;19.50;83.10;;;;;;4217190;28;20120;-57
2021/09/28 09:09:00;;;;;;;6.57;3.42;;;19.60;83.40;;;;;;4226563;28;20516;-56
2021/09/28 09:11:49;;;;;;;7.60;3.65;;;19.60;83.40;;;;;;4226135;27;20177;-56
2021/09/28 09:14:36;;;;;;;8.57;4.05;;;19.60;83.20;;;;;;4213214;27;20406;-56
2021/09/28 09:17:26;;;;;;;7.57;3.40;;;19.70;83.10;;;;;;4220160;27;20433;-59
2021/09/28 09:20:29;;;;;;;8.20;3.80;;;19.70;82.70;;;;;;4213625;27;20051;-59
2021/09/28 09:23:24;;;;;;;8.48;3.70;;;19.70;82.70;;;;;;4226017;28;20058;-59
2021/09/28 09:26:05;;;;;;;7.90;3.10;;;19.80;82.50;;;;;;4225712;27;20051;-58
2021/09/28 09:28:32;;;;;;;6.20;3.03;;;19.80;82.60;;;;;;4226128;27;20079;-59
2021/09/28 09:30:55;;;;;;;6.97;3.40;;;19.80;82.60;;;;;;4226789;27;20047;-59
2021/09/28 09:33:25;;;;;;;5.55;2.65;;;19.90;82.50;;;;;;4226470;27;20481;-59
2021/09/28 09:35:57;;;;;;;7.85;3.63;;;19.90;82.00;;;;;;4226267;27;20055;-59
2021/09/28 09:38:21;;;;;;;8.05;2.55;;;19.90;82.20;;;;;;4225438;27;20047;-60
2021/09/28 09:40:46;;;;;;;7.53;2.30;;;19.90;82.30;;;;;;4226483;27;20044;-60
2021/09/28 09:43:09;;;;;;;10.73;2.60;;;19.90;82.40;;;;;;4226474;27;20062;-59
2021/09/28 09:45:31;;;;;;;4.88;2.50;;;19.90;82.20;;;;;;4226422;27;20074;-60
2021/09/28 09:47:54;;;;;;;6.47;2.70;;;20.00;82.30;;;;;;4220954;27;20531;-60
2021/09/28 09:50:18;;;;;;;7.40;2.33;;;20.00;81.90;;;;;;4209548;28;20067;-60
2021/09/28 09:53:07;;;;;;;7.68;2.50;;;20.00;81.80;;;;;;4209237;28;20044;-60
2021/09/28 09:55:33;;;;;;;6.05;2.10;;;20.00;81.40;;;;;;4208735;28;20052;-60
2021/09/28 09:57:56;;;;;;;6.57;2.05;;;20.00;81.40;;;;;;4211325;28;20414;-59
2021/09/28 10:00:18;;;;;;;6.22;1.80;;;20.10;81.40;;;;;;4226157;27;20046;-59
2021/09/28 10:02:40;;;;;;;3.92;2.00;;;20.10;81.30;;;;;;4225306;27;20090;-60
2021/09/28 10:05:03;;;;;;;5.97;2.17;;;20.10;81.20;;;;;;4225675;27;20130;-59
2021/09/28 10:07:25;;;;;;;3.22;2.00;;;20.10;81.20;;;;;;4226175;27;20051;-59
2021/09/28 10:09:48;;;;;;;3.97;2.03;;;20.10;81.00;;;;;;4225656;27;20052;-60
2021/09/28 10:12:12;;;;;;;3.30;1.77;;;20.10;81.10;;;;;;4226064;27;20055;-60
2021/09/28 10:14:36;;;;;;;4.95;1.70;;;20.10;81.10;;;;;;4225885;27;20059;-59
2021/09/28 10:17:00;;;;;;;5.55;1.70;;;20.10;81.00;;;;;;4224907;27;20055;-60
2021/09/28 10:19:44;;;;;;;7.15;2.35;;;20.10;80.90;;;;;;4225646;27;20044;-59
2021/09/28 10:22:06;;;;;;;5.47;1.92;;;20.20;80.60;;;;;;4224468;28;20387;-60
2021/09/28 10:24:32;;;;;;;4.97;1.70;;;20.20;80.60;;;;;;4225600;27;20100;-60
2021/09/28 10:27:30;;;;;;;9.35;1.98;;;20.20;80.50;;;;;;4225305;27;20398;-60
2021/09/28 10:29:58;;;;;;;5.95;1.70;;;20.20;80.20;;;;;;4156930;28;20041;-60
2021/09/28 10:32:49;;;;;;;3.67;1.63;;;20.20;80.20;;;;;;4156477;28;20103;-60
2021/09/28 10:35:14;;;;;;;6.30;2.03;;;20.20;79.70;;;;;;4204378;27;20059;-59
2021/09/28 10:37:49;;;;;;;5.82;1.65;;;20.30;80.00;;;;;;4224349;27;20052;-61
2021/09/28 10:40:55;;;;;;;5.35;1.58;;;20.30;79.80;;;;;;4220111;27;20055;-60
2021/09/28 10:43:32;;;;;;;4.07;1.27;;;20.30;79.90;;;;;;4215268;27;20058;-58
2021/09/28 10:45:56;;;;;;;5.53;2.08;;;20.30;79.20;;;;;;4208246;28;20044;-60
2021/09/28 10:48:46;;;;;;;4.40;1.40;;;20.30;78.90;;;;;;4209347;28;20554;-59
2021/09/28 10:51:12;;;;;;;5.82;1.50;;;20.30;78.40;;;;;;4174900;27;20063;-60
2021/09/28 10:53:37;;;;;;;8.15;2.08;;;20.40;78.60;;;;;;4224802;27;20124;-61
2021/09/28 10:56:01;;;;;;;5.35;1.85;;;20.40;78.30;;;;;;4225120;27;20553;-60
2021/09/28 10:58:25;;;;;;;4.97;1.23;;;20.40;78.30;;;;;;4225153;27;20147;-60
2021/09/28 11:01:12;;;;;;;5.65;1.90;;;20.40;78.40;;;;;;4225176;27;20050;-60
2021/09/28 11:03:59;;;;;;;4.15;1.35;;;20.50;78.00;;;;;;4224186;27;20395;-60
2021/09/28 11:06:48;;;;;;;4.15;1.50;;;20.50;77.80;;;;;;4224948;27;20046;-59
2021/09/28 11:09:11;;;;;;;4.47;1.38;;;20.40;77.60;;;;;;4220819;27;20074;-59
2021/09/28 11:11:33;;;;;;;4.00;1.55;;;20.50;77.60;;;;;;4208215;28;20068;-59
2021/09/28 11:14:01;;;;;;;5.22;2.13;;;20.50;77.30;;;;;;4208028;28;20054;-60
2021/09/28 11:16:25;;;;;;;6.63;1.38;;;20.50;76.20;;;;;;4207854;28;20592;-60
2021/09/28 11:18:55;;;;;;;3.70;1.55;;;20.50;76.40;;;;;;4208159;28;20130;-59
2021/09/28 11:21:17;;;;;;;5.50;1.67;;;20.50;76.00;;;;;;4208103;28;22211;-59
2021/09/28 11:23:41;;;;;;;6.18;1.73;;;20.50;76.50;;;;;;4208191;28;20043;-59
2021/09/28 11:26:04;;;;;;;3.33;1.48;;;20.50;75.70;;;;;;4208132;28;20047;-60
2021/09/28 11:28:26;;;;;;;4.90;1.25;;;20.50;75.70;;;;;;4214087;27;20480;-60
2021/09/28 11:30:52;;;;;;;5.57;1.55;;;20.50;75.80;;;;;;4224751;27;20125;-60
2021/09/28 11:33:16;;;;;;;6.30;1.42;;;20.50;75.80;;;;;;4225055;27;20405;-59
2021/09/28 11:35:38;;;;;;;7.28;2.17;;;20.50;76.80;;;;;;4224849;27;20055;-62
2021/09/28 11:38:03;;;;;;;6.10;1.50;;;20.50;76.20;;;;;;4224405;27;20493;-60
2021/09/28 11:40:28;;;;;;;3.78;1.48;;;20.50;76.30;;;;;;4224809;27;20105;-60
2021/09/28 11:42:51;;;;;;;2.63;1.77;;;20.50;76.20;;;;;;4224600;27;20577;-59
2021/09/28 11:45:13;;;;;;;5.50;1.48;;;20.60;76.50;;;;;;4223117;27;20048;-60
2021/09/28 11:47:40;;;;;;;9.45;1.75;;;20.60;76.50;;;;;;4221616;27;20046;-60
2021/09/28 11:50:04;;;;;;;8.07;1.73;;;20.60;76.80;;;;;;4224854;27;20131;-59
2021/09/28 11:52:26;;;;;;;5.43;1.73;;;20.60;76.70;;;;;;4224728;27;20075;-59
2021/09/28 11:54:50;;;;;;;8.82;2.00;;;20.60;76.10;;;;;;4224464;27;20052;-59
2021/09/28 11:57:14;;;;;;;6.35;1.48;;;20.60;75.50;;;;;;4223886;27;20123;-59
2021/09/28 11:59:37;;;;;;;3.97;1.52;;;20.70;75.90;;;;;;4222785;27;20160;-58
2021/09/28 12:01:59;;;;;;;7.07;1.45;;;20.70;76.10;;;;;;4213518;28;20413;-59
2021/09/28 12:04:32;;;;;;;2.17;1.10;;;20.70;75.60;;;;;;4224355;28;20398;-59
2021/09/28 12:07:03;;;;;;;8.20;1.35;;;20.70;75.00;;;;;;4224256;27;20105;-59
2021/09/28 12:09:26;;;;;;;3.63;1.65;;;20.70;75.80;;;;;;4224522;27;20798;-58
2021/09/28 12:11:59;;;;;;;3.78;1.25;;;20.70;75.60;;;;;;4224502;27;20145;-58
2021/09/28 12:14:30;;;;;;;6.78;1.33;;;20.80;74.60;;;;;;4222783;27;20039;-59
2021/09/28 12:16:52;;;;;;;4.05;1.30;;;20.80;74.50;;;;;;4222916;27;20056;-60
2021/09/28 12:19:14;;;;;;;7.32;1.13;;;20.80;74.70;;;;;;4224403;27;20134;-59
2021/09/28 12:21:36;;;;;;;4.32;1.90;;;20.80;74.30;;;;;;4224358;28;20105;-59
2021/09/28 12:24:16;;;;;;;2.75;1.42;;;20.80;73.90;;;;;;4221212;27;20074;-58
2021/09/28 12:26:39;;;;;;;4.28;1.27;;;20.80;72.00;;;;;;4213435;28;20482;-59
2021/09/28 12:29:14;;;;;;;5.38;1.50;;;20.80;72.10;;;;;;4223899;27;20051;-59
2021/09/28 12:31:39;;;;;;;4.55;1.30;;;20.90;71.80;;;;;;4223589;27;20058;-59
2021/09/28 12:34:04;;;;;;;2.63;1.23;;;20.90;72.40;;;;;;4211534;27;20044;-60
2021/09/28 12:36:27;;;;;;;3.92;1.50;;;20.90;72.80;;;;;;4210928;27;20490;-59
2021/09/28 12:38:49;;;;;;;4.97;1.88;;;20.90;72.60;;;;;;4223930;27;20760;-57
2021/09/28 12:41:13;;;;;;;4.10;1.73;;;20.90;72.70;;;;;;4226920;27;20043;-60